sensor_id;sensor_type;location;lat;lon;timestamp;P1;durP1;ratioP1;P2;durP2;ratioP2
33170;SDS011;19535;50.672;4.206;2024-01-06T00:01:16;1.30;;;0.50;;
33170;SDS011;19535;50.672;4.206;2024-01-06T00:03:43;0.60;;;0.40;;
33170;SDS011;19535;50.672;4.206;2024-01-06T00:06:13;0.80;;;0.50;;
33170;SDS011;19535;50.672;4.206;2024-01-06T00:08:40;0.88;;;0.35;;
33170;SDS011;19535;50.672;4.206;2024-01-06T00:11:08;0.63;;;0.60;;
33170;SDS011;19535;50.672;4.206;2024-01-06T00:13:35;0.98;;;0.50;;
33170;SDS011;19535;50.672;4.206;2024-01-06T00:16:02;0.40;;;0.40;;
33170;SDS011;19535;50.672;4.206;2024-01-06T00:18:29;0.80;;;0.50;;
33170;SDS011;19535;50.672;4.206;2024-01-06T00:20:57;0.80;;;0.32;;
33170;SDS011;19535;50.672;4.206;2024-01-06T00:23:24;0.88;;;0.47;;
33170;SDS011;19535;50.672;4.206;2024-01-06T00:25:50;1.27;;;0.40;;
33170;SDS011;19535;50.672;4.206;2024-01-06T00:28:17;0.43;;;0.40;;
33170;SDS011;19535;50.672;4.206;2024-01-06T00:30:45;0.73;;;0.40;;
33170;SDS011;19535;50.672;4.206;2024-01-06T00:33:12;0.50;;;0.40;;
33170;SDS011;19535;50.672;4.206;2024-01-06T00:35:39;0.90;;;0.40;;
33170;SDS011;19535;50.672;4.206;2024-01-06T00:38:06;0.90;;;0.52;;
33170;SDS011;19535;50.672;4.206;2024-01-06T00:40:33;0.70;;;0.50;;
33170;SDS011;19535;50.672;4.206;2024-01-06T00:43:00;0.77;;;0.40;;
33170;SDS011;19535;50.672;4.206;2024-01-06T00:45:27;0.93;;;0.50;;
33170;SDS011;19535;50.672;4.206;2024-01-06T00:47:54;0.98;;;0.40;;
33170;SDS011;19535;50.672;4.206;2024-01-06T00:50:21;1.10;;;0.40;;
33170;SDS011;19535;50.672;4.206;2024-01-06T00:52:48;0.63;;;0.40;;
33170;SDS011;19535;50.672;4.206;2024-01-06T00:55:21;0.45;;;0.35;;
33170;SDS011;19535;50.672;4.206;2024-01-06T00:57:49;0.55;;;0.40;;
33170;SDS011;19535;50.672;4.206;2024-01-06T01:00:17;0.90;;;0.43;;
33170;SDS011;19535;50.672;4.206;2024-01-06T01:02:44;0.60;;;0.43;;
33170;SDS011;19535;50.672;4.206;2024-01-06T01:05:10;0.50;;;0.38;;
33170;SDS011;19535;50.672;4.206;2024-01-06T01:07:37;0.68;;;0.47;;
33170;SDS011;19535;50.672;4.206;2024-01-06T01:10:04;1.33;;;0.50;;
33170;SDS011;19535;50.672;4.206;2024-01-06T01:12:32;0.75;;;0.45;;
33170;SDS011;19535;50.672;4.206;2024-01-06T01:14:59;0.50;;;0.30;;
33170;SDS011;19535;50.672;4.206;2024-01-06T01:17:26;0.68;;;0.30;;
33170;SDS011;19535;50.672;4.206;2024-01-06T01:19:53;0.45;;;0.43;;
33170;SDS011;19535;50.672;4.206;2024-01-06T01:22:20;0.63;;;0.30;;
33170;SDS011;19535;50.672;4.206;2024-01-06T01:24:47;0.57;;;0.30;;
33170;SDS011;19535;50.672;4.206;2024-01-06T01:27:14;0.30;;;0.30;;
33170;SDS011;19535;50.672;4.206;2024-01-06T01:29:41;0.75;;;0.60;;
33170;SDS011;19535;50.672;4.206;2024-01-06T01:32:08;0.82;;;0.50;;
33170;SDS011;19535;50.672;4.206;2024-01-06T01:34:35;0.60;;;0.60;;
33170;SDS011;19535;50.672;4.206;2024-01-06T01:37:02;0.82;;;0.30;;
33170;SDS011;19535;50.672;4.206;2024-01-06T01:39:29;0.95;;;0.65;;
33170;SDS011;19535;50.672;4.206;2024-01-06T01:41:56;0.65;;;0.50;;
33170;SDS011;19535;50.672;4.206;2024-01-06T01:44:23;0.50;;;0.38;;
33170;SDS011;19535;50.672;4.206;2024-01-06T01:46:51;0.50;;;0.35;;
33170;SDS011;19535;50.672;4.206;2024-01-06T01:49:18;0.50;;;0.40;;
33170;SDS011;19535;50.672;4.206;2024-01-06T01:51:45;0.80;;;0.30;;
33170;SDS011;19535;50.672;4.206;2024-01-06T01:54:12;0.40;;;0.40;;
33170;SDS011;19535;50.672;4.206;2024-01-06T01:56:39;0.30;;;0.30;;
33170;SDS011;19535;50.672;4.206;2024-01-06T01:59:09;1.00;;;0.40;;
33170;SDS011;19535;50.672;4.206;2024-01-06T02:40:39;0.30;;;0.30;;
33170;SDS011;19535;50.672;4.206;2024-01-06T02:43:06;0.40;;;0.30;;
33170;SDS011;19535;50.672;4.206;2024-01-06T02:45:33;0.30;;;0.30;;
33170;SDS011;19535;50.672;4.206;2024-01-06T02:48:00;0.90;;;0.40;;
33170;SDS011;19535;50.672;4.206;2024-01-06T02:50:27;0.57;;;0.35;;
33170;SDS011;19535;50.672;4.206;2024-01-06T02:52:54;0.60;;;0.40;;
33170;SDS011;19535;50.672;4.206;2024-01-06T02:55:21;1.20;;;0.40;;
33170;SDS011;19535;50.672;4.206;2024-01-06T02:57:48;0.90;;;0.40;;
33170;SDS011;19535;50.672;4.206;2024-01-06T03:00:15;0.57;;;0.30;;
33170;SDS011;19535;50.672;4.206;2024-01-06T03:02:42;0.60;;;0.30;;
33170;SDS011;19535;50.672;4.206;2024-01-06T03:05:09;0.98;;;0.40;;
33170;SDS011;19535;50.672;4.206;2024-01-06T03:07:37;0.68;;;0.38;;
33170;SDS011;19535;50.672;4.206;2024-01-06T03:10:04;1.50;;;0.40;;
33170;SDS011;19535;50.672;4.206;2024-01-06T03:12:31;0.68;;;0.38;;
33170;SDS011;19535;50.672;4.206;2024-01-06T03:14:58;0.30;;;0.30;;
33170;SDS011;19535;50.672;4.206;2024-01-06T03:17:25;0.52;;;0.30;;
33170;SDS011;19535;50.672;4.206;2024-01-06T03:19:52;0.50;;;0.25;;
33170;SDS011;19535;50.672;4.206;2024-01-06T03:22:19;0.80;;;0.45;;
33170;SDS011;19535;50.672;4.206;2024-01-06T03:24:46;0.52;;;0.40;;
33170;SDS011;19535;50.672;4.206;2024-01-06T03:27:14;0.40;;;0.30;;
33170;SDS011;19535;50.672;4.206;2024-01-06T03:29:41;0.40;;;0.38;;
33170;SDS011;19535;50.672;4.206;2024-01-06T03:32:08;0.95;;;0.40;;
33170;SDS011;19535;50.672;4.206;2024-01-06T03:34:35;0.63;;;0.35;;
33170;SDS011;19535;50.672;4.206;2024-01-06T03:37:02;0.52;;;0.30;;
33170;SDS011;19535;50.672;4.206;2024-01-06T03:39:29;0.73;;;0.40;;
33170;SDS011;19535;50.672;4.206;2024-01-06T03:41:56;1.20;;;0.30;;
33170;SDS011;19535;50.672;4.206;2024-01-06T03:44:23;0.80;;;0.40;;
33170;SDS011;19535;50.672;4.206;2024-01-06T03:46:50;0.20;;;0.20;;
33170;SDS011;19535;50.672;4.206;2024-01-06T03:49:17;1.23;;;0.50;;
33170;SDS011;19535;50.672;4.206;2024-01-06T03:51:47;0.38;;;0.28;;
33170;SDS011;19535;50.672;4.206;2024-01-06T03:54:14;0.63;;;0.40;;
33170;SDS011;19535;50.672;4.206;2024-01-06T03:56:41;0.77;;;0.40;;
33170;SDS011;19535;50.672;4.206;2024-01-06T03:59:08;0.77;;;0.40;;
33170;SDS011;19535;50.672;4.206;2024-01-06T04:01:35;0.63;;;0.40;;
33170;SDS011;19535;50.672;4.206;2024-01-06T04:04:02;0.90;;;0.40;;
33170;SDS011;19535;50.672;4.206;2024-01-06T04:06:29;0.88;;;0.40;;
33170;SDS011;19535;50.672;4.206;2024-01-06T04:08:58;0.55;;;0.32;;
33170;SDS011;19535;50.672;4.206;2024-01-06T04:11:25;0.73;;;0.30;;
33170;SDS011;19535;50.672;4.206;2024-01-06T04:13:51;1.23;;;0.50;;
33170;SDS011;19535;50.672;4.206;2024-01-06T04:16:19;0.47;;;0.30;;
33170;SDS011;19535;50.672;4.206;2024-01-06T04:18:46;0.57;;;0.30;;
33170;SDS011;19535;50.672;4.206;2024-01-06T04:21:13;0.85;;;0.40;;
33170;SDS011;19535;50.672;4.206;2024-01-06T04:23:40;0.70;;;0.30;;
33170;SDS011;19535;50.672;4.206;2024-01-06T04:26:07;0.60;;;0.35;;
33170;SDS011;19535;50.672;4.206;2024-01-06T04:28:34;0.40;;;0.28;;
33170;SDS011;19535;50.672;4.206;2024-01-06T04:31:01;0.63;;;0.30;;
33170;SDS011;19535;50.672;4.206;2024-01-06T04:33:28;0.40;;;0.30;;
33170;SDS011;19535;50.672;4.206;2024-01-06T04:35:55;0.43;;;0.25;;
33170;SDS011;19535;50.672;4.206;2024-01-06T04:38:22;0.68;;;0.30;;
33170;SDS011;19535;50.672;4.206;2024-01-06T04:40:49;1.10;;;0.20;;
33170;SDS011;19535;50.672;4.206;2024-01-06T04:43:16;0.40;;;0.22;;
33170;SDS011;19535;50.672;4.206;2024-01-06T04:45:42;0.45;;;0.20;;
33170;SDS011;19535;50.672;4.206;2024-01-06T04:48:09;0.65;;;0.30;;
33170;SDS011;19535;50.672;4.206;2024-01-06T04:50:37;1.50;;;0.40;;
33170;SDS011;19535;50.672;4.206;2024-01-06T04:53:03;0.45;;;0.38;;
33170;SDS011;19535;50.672;4.206;2024-01-06T04:55:30;0.43;;;0.30;;
33170;SDS011;19535;50.672;4.206;2024-01-06T04:57:57;0.60;;;0.25;;
33170;SDS011;19535;50.672;4.206;2024-01-06T05:00:24;0.50;;;0.30;;
33170;SDS011;19535;50.672;4.206;2024-01-06T05:02:52;0.50;;;0.30;;
33170;SDS011;19535;50.672;4.206;2024-01-06T05:05:19;0.90;;;0.40;;
33170;SDS011;19535;50.672;4.206;2024-01-06T05:07:46;0.60;;;0.25;;
33170;SDS011;19535;50.672;4.206;2024-01-06T05:10:13;0.32;;;0.28;;
33170;SDS011;19535;50.672;4.206;2024-01-06T05:12:40;0.60;;;0.30;;
33170;SDS011;19535;50.672;4.206;2024-01-06T05:15:07;0.45;;;0.40;;
33170;SDS011;19535;50.672;4.206;2024-01-06T05:17:35;1.10;;;0.30;;
33170;SDS011;19535;50.672;4.206;2024-01-06T05:20:02;0.20;;;0.20;;
33170;SDS011;19535;50.672;4.206;2024-01-06T05:22:30;0.28;;;0.28;;
33170;SDS011;19535;50.672;4.206;2024-01-06T05:24:57;0.20;;;0.20;;
33170;SDS011;19535;50.672;4.206;2024-01-06T05:27:23;0.90;;;0.30;;
33170;SDS011;19535;50.672;4.206;2024-01-06T05:29:50;0.30;;;0.30;;
33170;SDS011;19535;50.672;4.206;2024-01-06T05:32:18;0.80;;;0.40;;
33170;SDS011;19535;50.672;4.206;2024-01-06T05:34:45;0.40;;;0.20;;
33170;SDS011;19535;50.672;4.206;2024-01-06T05:37:12;1.10;;;0.30;;
33170;SDS011;19535;50.672;4.206;2024-01-06T05:39:39;0.20;;;0.20;;
33170;SDS011;19535;50.672;4.206;2024-01-06T05:42:08;0.73;;;0.20;;
33170;SDS011;19535;50.672;4.206;2024-01-06T05:47:04;0.68;;;0.45;;
33170;SDS011;19535;50.672;4.206;2024-01-06T05:49:31;0.68;;;0.20;;
33170;SDS011;19535;50.672;4.206;2024-01-06T05:51:58;0.50;;;0.30;;
33170;SDS011;19535;50.672;4.206;2024-01-06T05:54:25;0.75;;;0.30;;
33170;SDS011;19535;50.672;4.206;2024-01-06T05:56:52;0.28;;;0.20;;
33170;SDS011;19535;50.672;4.206;2024-01-06T05:59:19;0.43;;;0.30;;
33170;SDS011;19535;50.672;4.206;2024-01-06T06:01:46;0.50;;;0.20;;
33170;SDS011;19535;50.672;4.206;2024-01-06T06:04:13;0.43;;;0.20;;
33170;SDS011;19535;50.672;4.206;2024-01-06T06:06:40;0.55;;;0.30;;
33170;SDS011;19535;50.672;4.206;2024-01-06T06:09:07;0.98;;;0.20;;
33170;SDS011;19535;50.672;4.206;2024-01-06T06:11:35;0.15;;;0.15;;
33170;SDS011;19535;50.672;4.206;2024-01-06T06:14:02;3.05;;;0.40;;
33170;SDS011;19535;50.672;4.206;2024-01-06T06:16:31;0.30;;;0.30;;
33170;SDS011;19535;50.672;4.206;2024-01-06T06:18:58;0.57;;;0.40;;
33170;SDS011;19535;50.672;4.206;2024-01-06T06:21:25;0.55;;;0.30;;
33170;SDS011;19535;50.672;4.206;2024-01-06T06:23:52;0.68;;;0.35;;
33170;SDS011;19535;50.672;4.206;2024-01-06T06:26:19;0.10;;;0.10;;
33170;SDS011;19535;50.672;4.206;2024-01-06T06:28:46;1.63;;;0.40;;
33170;SDS011;19535;50.672;4.206;2024-01-06T06:31:13;0.50;;;0.40;;
33170;SDS011;19535;50.672;4.206;2024-01-06T06:33:40;0.40;;;0.20;;
33170;SDS011;19535;50.672;4.206;2024-01-06T06:36:07;0.68;;;0.35;;
33170;SDS011;19535;50.672;4.206;2024-01-06T06:38:34;0.93;;;0.40;;
33170;SDS011;19535;50.672;4.206;2024-01-06T06:41:01;0.77;;;0.30;;
33170;SDS011;19535;50.672;4.206;2024-01-06T06:43:28;0.75;;;0.28;;
33170;SDS011;19535;50.672;4.206;2024-01-06T06:45:55;0.75;;;0.47;;
33170;SDS011;19535;50.672;4.206;2024-01-06T06:48:22;0.35;;;0.25;;
33170;SDS011;19535;50.672;4.206;2024-01-06T06:50:49;0.55;;;0.30;;
33170;SDS011;19535;50.672;4.206;2024-01-06T06:53:16;0.20;;;0.20;;
33170;SDS011;19535;50.672;4.206;2024-01-06T06:55:43;0.40;;;0.30;;
33170;SDS011;19535;50.672;4.206;2024-01-06T06:58:10;0.50;;;0.30;;
33170;SDS011;19535;50.672;4.206;2024-01-06T07:00:37;0.43;;;0.30;;
33170;SDS011;19535;50.672;4.206;2024-01-06T07:03:04;0.20;;;0.20;;
33170;SDS011;19535;50.672;4.206;2024-01-06T07:05:31;0.40;;;0.30;;
33170;SDS011;19535;50.672;4.206;2024-01-06T07:08:01;0.98;;;0.30;;
33170;SDS011;19535;50.672;4.206;2024-01-06T07:10:28;0.70;;;0.30;;
33170;SDS011;19535;50.672;4.206;2024-01-06T07:12:56;0.85;;;0.40;;
33170;SDS011;19535;50.672;4.206;2024-01-06T07:15:23;0.40;;;0.30;;
33170;SDS011;19535;50.672;4.206;2024-01-06T07:17:50;0.60;;;0.40;;
33170;SDS011;19535;50.672;4.206;2024-01-06T07:20:17;0.40;;;0.22;;
33170;SDS011;19535;50.672;4.206;2024-01-06T07:22:44;0.10;;;0.10;;
33170;SDS011;19535;50.672;4.206;2024-01-06T07:25:11;0.40;;;0.30;;
33170;SDS011;19535;50.672;4.206;2024-01-06T07:27:38;0.20;;;0.20;;
33170;SDS011;19535;50.672;4.206;2024-01-06T07:30:05;0.75;;;0.25;;
33170;SDS011;19535;50.672;4.206;2024-01-06T07:32:34;0.85;;;0.45;;
33170;SDS011;19535;50.672;4.206;2024-01-06T07:35:01;0.20;;;0.20;;
33170;SDS011;19535;50.672;4.206;2024-01-06T07:37:33;0.28;;;0.20;;
33170;SDS011;19535;50.672;4.206;2024-01-06T07:40:00;0.43;;;0.20;;
33170;SDS011;19535;50.672;4.206;2024-01-06T07:42:27;0.90;;;0.30;;
33170;SDS011;19535;50.672;4.206;2024-01-06T07:44:54;0.28;;;0.28;;
33170;SDS011;19535;50.672;4.206;2024-01-06T07:47:21;0.22;;;0.20;;
33170;SDS011;19535;50.672;4.206;2024-01-06T07:49:48;0.82;;;0.30;;
33170;SDS011;19535;50.672;4.206;2024-01-06T07:52:15;1.20;;;0.30;;
33170;SDS011;19535;50.672;4.206;2024-01-06T07:54:42;0.40;;;0.28;;
33170;SDS011;19535;50.672;4.206;2024-01-06T07:57:09;0.30;;;0.30;;
33170;SDS011;19535;50.672;4.206;2024-01-06T07:59:37;0.22;;;0.20;;
33170;SDS011;19535;50.672;4.206;2024-01-06T08:02:04;0.63;;;0.30;;
33170;SDS011;19535;50.672;4.206;2024-01-06T08:04:31;0.25;;;0.20;;
33170;SDS011;19535;50.672;4.206;2024-01-06T08:06:58;0.43;;;0.20;;
33170;SDS011;19535;50.672;4.206;2024-01-06T08:09:25;0.30;;;0.30;;
33170;SDS011;19535;50.672;4.206;2024-01-06T08:11:52;0.82;;;0.30;;
33170;SDS011;19535;50.672;4.206;2024-01-06T08:14:19;0.40;;;0.30;;
33170;SDS011;19535;50.672;4.206;2024-01-06T08:16:46;0.20;;;0.20;;
33170;SDS011;19535;50.672;4.206;2024-01-06T08:19:13;0.50;;;0.20;;
33170;SDS011;19535;50.672;4.206;2024-01-06T08:21:40;0.65;;;0.32;;
33170;SDS011;19535;50.672;4.206;2024-01-06T08:24:07;0.70;;;0.43;;
33170;SDS011;19535;50.672;4.206;2024-01-06T08:26:34;5.45;;;0.85;;
33170;SDS011;19535;50.672;4.206;2024-01-06T08:29:01;0.30;;;0.30;;
33170;SDS011;19535;50.672;4.206;2024-01-06T08:31:28;0.80;;;0.50;;
33170;SDS011;19535;50.672;4.206;2024-01-06T08:33:55;0.82;;;0.45;;
33170;SDS011;19535;50.672;4.206;2024-01-06T08:36:22;0.68;;;0.30;;
33170;SDS011;19535;50.672;4.206;2024-01-06T08:38:49;0.40;;;0.38;;
33170;SDS011;19535;50.672;4.206;2024-01-06T08:41:17;0.38;;;0.30;;
33170;SDS011;19535;50.672;4.206;2024-01-06T08:43:44;0.30;;;0.30;;
33170;SDS011;19535;50.672;4.206;2024-01-06T08:46:11;0.57;;;0.57;;
33170;SDS011;19535;50.672;4.206;2024-01-06T08:48:38;0.30;;;0.30;;
33170;SDS011;19535;50.672;4.206;2024-01-06T08:51:05;0.45;;;0.45;;
33170;SDS011;19535;50.672;4.206;2024-01-06T08:53:32;0.50;;;0.40;;
33170;SDS011;19535;50.672;4.206;2024-01-06T08:55:59;0.60;;;0.40;;
33170;SDS011;19535;50.672;4.206;2024-01-06T08:58:26;0.63;;;0.40;;
33170;SDS011;19535;50.672;4.206;2024-01-06T09:00:53;0.50;;;0.40;;
33170;SDS011;19535;50.672;4.206;2024-01-06T09:03:21;1.02;;;0.50;;
33170;SDS011;19535;50.672;4.206;2024-01-06T09:05:53;0.45;;;0.40;;
33170;SDS011;19535;50.672;4.206;2024-01-06T09:08:22;1.00;;;0.60;;
33170;SDS011;19535;50.672;4.206;2024-01-06T09:10:50;0.22;;;0.22;;
33170;SDS011;19535;50.672;4.206;2024-01-06T09:13:23;1.45;;;0.50;;
33170;SDS011;19535;50.672;4.206;2024-01-06T09:15:50;0.40;;;0.40;;
33170;SDS011;19535;50.672;4.206;2024-01-06T09:18:18;0.57;;;0.30;;
33170;SDS011;19535;50.672;4.206;2024-01-06T09:20:45;0.50;;;0.40;;
33170;SDS011;19535;50.672;4.206;2024-01-06T09:23:15;1.25;;;0.40;;
33170;SDS011;19535;50.672;4.206;2024-01-06T09:25:43;1.67;;;0.30;;
33170;SDS011;19535;50.672;4.206;2024-01-06T09:28:10;0.93;;;0.40;;
33170;SDS011;19535;50.672;4.206;2024-01-06T09:30:37;1.42;;;0.38;;
33170;SDS011;19535;50.672;4.206;2024-01-06T09:33:04;0.73;;;0.50;;
33170;SDS011;19535;50.672;4.206;2024-01-06T09:35:31;0.98;;;0.63;;
33170;SDS011;19535;50.672;4.206;2024-01-06T09:37:59;2.15;;;0.50;;
33170;SDS011;19535;50.672;4.206;2024-01-06T09:40:26;0.93;;;0.70;;
33170;SDS011;19535;50.672;4.206;2024-01-06T09:42:52;1.13;;;0.73;;
33170;SDS011;19535;50.672;4.206;2024-01-06T09:45:20;2.25;;;1.00;;
33170;SDS011;19535;50.672;4.206;2024-01-06T09:47:50;1.40;;;0.82;;
33170;SDS011;19535;50.672;4.206;2024-01-06T09:50:18;1.15;;;0.70;;
33170;SDS011;19535;50.672;4.206;2024-01-06T09:52:46;3.03;;;0.95;;
33170;SDS011;19535;50.672;4.206;2024-01-06T09:55:23;1.50;;;0.93;;
33170;SDS011;19535;50.672;4.206;2024-01-06T09:57:54;5.10;;;1.35;;
33170;SDS011;19535;50.672;4.206;2024-01-06T10:00:21;4.28;;;1.20;;
33170;SDS011;19535;50.672;4.206;2024-01-06T10:02:48;3.15;;;1.10;;
33170;SDS011;19535;50.672;4.206;2024-01-06T10:05:16;3.33;;;1.20;;
33170;SDS011;19535;50.672;4.206;2024-01-06T10:07:47;3.70;;;1.20;;
33170;SDS011;19535;50.672;4.206;2024-01-06T10:10:14;2.20;;;1.08;;
33170;SDS011;19535;50.672;4.206;2024-01-06T10:12:41;2.15;;;1.15;;
33170;SDS011;19535;50.672;4.206;2024-01-06T10:15:09;3.40;;;1.20;;
33170;SDS011;19535;50.672;4.206;2024-01-06T10:17:37;2.80;;;0.90;;
33170;SDS011;19535;50.672;4.206;2024-01-06T10:20:06;1.40;;;0.80;;
33170;SDS011;19535;50.672;4.206;2024-01-06T10:22:37;2.67;;;1.27;;
33170;SDS011;19535;50.672;4.206;2024-01-06T10:25:05;2.28;;;1.00;;
33170;SDS011;19535;50.672;4.206;2024-01-06T10:27:39;4.93;;;1.35;;
33170;SDS011;19535;50.672;4.206;2024-01-06T10:30:07;2.28;;;0.98;;
33170;SDS011;19535;50.672;4.206;2024-01-06T10:32:35;3.40;;;1.33;;
33170;SDS011;19535;50.672;4.206;2024-01-06T10:35:03;2.42;;;0.93;;
33170;SDS011;19535;50.672;4.206;2024-01-06T10:42:40;2.75;;;0.98;;
33170;SDS011;19535;50.672;4.206;2024-01-06T10:45:09;3.80;;;1.13;;
33170;SDS011;19535;50.672;4.206;2024-01-06T10:47:38;3.05;;;0.90;;
33170;SDS011;19535;50.672;4.206;2024-01-06T10:50:07;3.08;;;1.20;;
33170;SDS011;19535;50.672;4.206;2024-01-06T10:52:34;1.80;;;0.98;;
33170;SDS011;19535;50.672;4.206;2024-01-06T10:55:03;2.28;;;1.40;;
33170;SDS011;19535;50.672;4.206;2024-01-06T10:57:31;3.87;;;1.50;;
33170;SDS011;19535;50.672;4.206;2024-01-06T10:59:59;2.22;;;1.13;;
33170;SDS011;19535;50.672;4.206;2024-01-06T11:02:26;1.13;;;0.88;;
33170;SDS011;19535;50.672;4.206;2024-01-06T11:04:53;2.45;;;1.00;;
33170;SDS011;19535;50.672;4.206;2024-01-06T11:07:21;2.38;;;0.90;;
33170;SDS011;19535;50.672;4.206;2024-01-06T11:09:50;1.45;;;1.00;;
33170;SDS011;19535;50.672;4.206;2024-01-06T11:12:21;2.65;;;0.95;;
33170;SDS011;19535;50.672;4.206;2024-01-06T11:14:52;3.40;;;1.20;;
33170;SDS011;19535;50.672;4.206;2024-01-06T11:20:25;2.15;;;1.10;;
33170;SDS011;19535;50.672;4.206;2024-01-06T11:22:53;1.20;;;0.77;;
33170;SDS011;19535;50.672;4.206;2024-01-06T11:25:20;3.80;;;1.00;;
33170;SDS011;19535;50.672;4.206;2024-01-06T11:27:49;1.40;;;0.90;;
33170;SDS011;19535;50.672;4.206;2024-01-06T11:30:21;2.10;;;1.13;;
33170;SDS011;19535;50.672;4.206;2024-01-06T11:32:53;1.27;;;0.80;;
33170;SDS011;19535;50.672;4.206;2024-01-06T11:35:25;1.08;;;0.70;;
33170;SDS011;19535;50.672;4.206;2024-01-06T11:37:54;1.33;;;0.90;;
33170;SDS011;19535;50.672;4.206;2024-01-06T11:40:25;1.85;;;0.80;;
33170;SDS011;19535;50.672;4.206;2024-01-06T11:43:03;1.15;;;0.65;;
33170;SDS011;19535;50.672;4.206;2024-01-06T11:45:36;1.75;;;0.85;;
33170;SDS011;19535;50.672;4.206;2024-01-06T11:48:07;2.22;;;0.98;;
33170;SDS011;19535;50.672;4.206;2024-01-06T11:50:36;1.02;;;0.70;;
33170;SDS011;19535;50.672;4.206;2024-01-06T11:53:04;1.52;;;0.93;;
33170;SDS011;19535;50.672;4.206;2024-01-06T11:55:32;1.10;;;1.00;;
33170;SDS011;19535;50.672;4.206;2024-01-06T11:57:59;1.85;;;0.82;;
33170;SDS011;19535;50.672;4.206;2024-01-06T12:00:30;1.42;;;0.68;;
33170;SDS011;19535;50.672;4.206;2024-01-06T12:02:59;2.35;;;0.65;;
33170;SDS011;19535;50.672;4.206;2024-01-06T12:05:27;1.65;;;0.82;;
33170;SDS011;19535;50.672;4.206;2024-01-06T12:07:55;1.20;;;0.70;;
33170;SDS011;19535;50.672;4.206;2024-01-06T12:10:26;1.67;;;0.90;;
33170;SDS011;19535;50.672;4.206;2024-01-06T12:13:00;1.10;;;0.80;;
33170;SDS011;19535;50.672;4.206;2024-01-06T12:15:29;3.22;;;0.93;;
33170;SDS011;19535;50.672;4.206;2024-01-06T12:17:57;1.10;;;1.00;;
33170;SDS011;19535;50.672;4.206;2024-01-06T12:20:25;1.33;;;0.82;;
33170;SDS011;19535;50.672;4.206;2024-01-06T12:22:55;1.67;;;0.80;;
33170;SDS011;19535;50.672;4.206;2024-01-06T12:25:23;1.42;;;0.80;;
33170;SDS011;19535;50.672;4.206;2024-01-06T12:27:51;3.05;;;1.45;;
33170;SDS011;19535;50.672;4.206;2024-01-06T12:30:21;5.72;;;3.72;;
33170;SDS011;19535;50.672;4.206;2024-01-06T12:32:49;30.08;;;21.77;;
33170;SDS011;19535;50.672;4.206;2024-01-06T12:35:19;52.20;;;26.55;;
33170;SDS011;19535;50.672;4.206;2024-01-06T12:37:46;57.55;;;31.02;;
33170;SDS011;19535;50.672;4.206;2024-01-06T12:40:14;89.78;;;39.25;;
33170;SDS011;19535;50.672;4.206;2024-01-06T12:42:44;112.47;;;47.30;;
33170;SDS011;19535;50.672;4.206;2024-01-06T12:45:11;127.78;;;52.83;;
33170;SDS011;19535;50.672;4.206;2024-01-06T12:47:39;140.02;;;55.22;;
33170;SDS011;19535;50.672;4.206;2024-01-06T12:50:07;146.73;;;57.42;;
33170;SDS011;19535;50.672;4.206;2024-01-06T12:52:35;151.18;;;63.25;;
33170;SDS011;19535;50.672;4.206;2024-01-06T12:55:02;161.88;;;65.00;;
33170;SDS011;19535;50.672;4.206;2024-01-06T12:57:30;176.38;;;65.88;;
33170;SDS011;19535;50.672;4.206;2024-01-06T12:59:57;160.43;;;64.03;;
33170;SDS011;19535;50.672;4.206;2024-01-06T13:02:24;158.35;;;65.57;;
33170;SDS011;19535;50.672;4.206;2024-01-06T13:04:51;154.48;;;64.03;;
33170;SDS011;19535;50.672;4.206;2024-01-06T13:07:18;158.88;;;63.17;;
33170;SDS011;19535;50.672;4.206;2024-01-06T13:09:45;158.30;;;63.75;;
33170;SDS011;19535;50.672;4.206;2024-01-06T13:12:12;141.88;;;59.08;;
33170;SDS011;19535;50.672;4.206;2024-01-06T13:14:38;155.50;;;62.60;;
33170;SDS011;19535;50.672;4.206;2024-01-06T13:17:05;132.73;;;58.35;;
33170;SDS011;19535;50.672;4.206;2024-01-06T13:19:32;140.45;;;57.58;;
33170;SDS011;19535;50.672;4.206;2024-01-06T13:22:00;126.90;;;55.05;;
33170;SDS011;19535;50.672;4.206;2024-01-06T13:24:27;121.97;;;55.70;;
33170;SDS011;19535;50.672;4.206;2024-01-06T13:26:54;129.65;;;57.40;;
33170;SDS011;19535;50.672;4.206;2024-01-06T13:29:21;121.80;;;56.42;;
33170;SDS011;19535;50.672;4.206;2024-01-06T13:31:48;122.13;;;54.10;;
33170;SDS011;19535;50.672;4.206;2024-01-06T13:34:15;116.07;;;53.13;;
33170;SDS011;19535;50.672;4.206;2024-01-06T13:36:43;109.30;;;53.85;;
33170;SDS011;19535;50.672;4.206;2024-01-06T13:39:09;118.70;;;53.83;;
33170;SDS011;19535;50.672;4.206;2024-01-06T13:41:46;106.93;;;50.60;;
33170;SDS011;19535;50.672;4.206;2024-01-06T13:44:16;97.35;;;49.30;;
33170;SDS011;19535;50.672;4.206;2024-01-06T13:46:43;100.72;;;48.45;;
33170;SDS011;19535;50.672;4.206;2024-01-06T13:49:11;98.20;;;47.13;;
33170;SDS011;19535;50.672;4.206;2024-01-06T13:51:39;99.28;;;47.20;;
33170;SDS011;19535;50.672;4.206;2024-01-06T13:54:06;99.72;;;46.63;;
33170;SDS011;19535;50.672;4.206;2024-01-06T13:56:34;86.90;;;45.75;;
33170;SDS011;19535;50.672;4.206;2024-01-06T13:59:01;97.60;;;47.22;;
33170;SDS011;19535;50.672;4.206;2024-01-06T14:01:28;92.25;;;45.58;;
33170;SDS011;19535;50.672;4.206;2024-01-06T14:03:55;87.40;;;44.20;;
33170;SDS011;19535;50.672;4.206;2024-01-06T14:06:26;84.43;;;43.67;;
33170;SDS011;19535;50.672;4.206;2024-01-06T14:08:57;85.70;;;44.25;;
33170;SDS011;19535;50.672;4.206;2024-01-06T14:11:28;91.63;;;44.05;;
33170;SDS011;19535;50.672;4.206;2024-01-06T14:13:57;80.43;;;43.05;;
33170;SDS011;19535;50.672;4.206;2024-01-06T14:16:26;81.97;;;41.00;;
33170;SDS011;19535;50.672;4.206;2024-01-06T14:18:53;73.07;;;39.05;;
33170;SDS011;19535;50.672;4.206;2024-01-06T14:21:20;71.30;;;34.97;;
33170;SDS011;19535;50.672;4.206;2024-01-06T14:23:47;59.75;;;31.67;;
33170;SDS011;19535;50.672;4.206;2024-01-06T14:26:16;65.50;;;34.40;;
33170;SDS011;19535;50.672;4.206;2024-01-06T14:28:49;62.13;;;33.25;;
33170;SDS011;19535;50.672;4.206;2024-01-06T14:31:16;61.20;;;32.13;;
33170;SDS011;19535;50.672;4.206;2024-01-06T14:33:43;61.92;;;32.92;;
33170;SDS011;19535;50.672;4.206;2024-01-06T14:36:11;61.97;;;33.50;;
33170;SDS011;19535;50.672;4.206;2024-01-06T14:38:38;62.72;;;32.22;;
33170;SDS011;19535;50.672;4.206;2024-01-06T14:41:05;55.35;;;32.15;;
33170;SDS011;19535;50.672;4.206;2024-01-06T14:43:32;60.90;;;32.25;;
33170;SDS011;19535;50.672;4.206;2024-01-06T14:45:59;58.63;;;33.22;;
33170;SDS011;19535;50.672;4.206;2024-01-06T14:48:26;56.53;;;31.27;;
33170;SDS011;19535;50.672;4.206;2024-01-06T14:50:53;53.33;;;31.17;;
33170;SDS011;19535;50.672;4.206;2024-01-06T14:53:20;60.40;;;31.58;;
33170;SDS011;19535;50.672;4.206;2024-01-06T14:55:47;52.90;;;30.65;;
33170;SDS011;19535;50.672;4.206;2024-01-06T14:58:14;61.05;;;30.85;;
33170;SDS011;19535;50.672;4.206;2024-01-06T15:00:41;57.15;;;29.92;;
33170;SDS011;19535;50.672;4.206;2024-01-06T15:03:08;52.40;;;30.25;;
33170;SDS011;19535;50.672;4.206;2024-01-06T15:05:35;52.47;;;29.38;;
33170;SDS011;19535;50.672;4.206;2024-01-06T15:08:02;52.00;;;29.13;;
33170;SDS011;19535;50.672;4.206;2024-01-06T15:10:29;51.88;;;29.05;;
33170;SDS011;19535;50.672;4.206;2024-01-06T15:12:56;51.33;;;28.10;;
33170;SDS011;19535;50.672;4.206;2024-01-06T15:15:22;47.67;;;28.63;;
33170;SDS011;19535;50.672;4.206;2024-01-06T15:17:49;48.03;;;26.88;;
33170;SDS011;19535;50.672;4.206;2024-01-06T15:20:19;47.80;;;26.42;;
33170;SDS011;19535;50.672;4.206;2024-01-06T15:22:45;43.13;;;26.73;;
33170;SDS011;19535;50.672;4.206;2024-01-06T15:25:12;46.22;;;28.13;;
33170;SDS011;19535;50.672;4.206;2024-01-06T15:27:40;46.15;;;26.65;;
33170;SDS011;19535;50.672;4.206;2024-01-06T15:30:07;43.97;;;27.00;;
33170;SDS011;19535;50.672;4.206;2024-01-06T15:32:35;39.55;;;25.02;;